Hovedside
METAR-TAF:

METAR-TAF

Lufthavner :

Linköping, Sverige

Linköping lufthavn

breddegrad: 58-24N, lengdegrad: 015-41E, høyde over havet: 52 m

Gjeldene værobservasjon

Denne rapporten ble laget for 19 minutter siden, klokken 05:50 UTC
Vind 5 kt fra Vest
Temperatur -1°C
Luftfuktighet 80%
Trykk 1026 hPa
Sikt 10 km eller mer
ingen skyer under 1500 m og ingen bygeskyer

METAR: ESSL 240550Z 26005KT CAVOK M01/M04 Q1026 R29/09//95

Tid: 07:09 (06:09 UTC)

Varsel

Denne rapporten ble laget for 24 minutter siden, klokken 05:45 UTC
Varsel gyldig fra 24. klokken 06 UTC til 24. klokken 15 UTC
Vind 7 kt fra Vest
Sikt 10 km eller mer
ingen skyer under 1500 m og ingen bygeskyer

TAF: ESSL 240545Z 2406/2415 26007KT CAVOK RMK MIL

Værobservasjoner og værvarsel for over 4000 flyplasser (METAR- og TAF-rapporter).

Tilgjengelige stasjoner er representert av de røde og gule prikkene på kartet.

Hold musepekeren over prikken for å se navnet på stasjonen.

Klikk så for å se værobservasjoner og -varsler.

For å forandre kartet kan du klikke på den grønne knappen med svart kryss for å zoome inn, på den grønne knappen med strek for å zoome ut, eller på de grønne pilene for å se tilstøtende kart.


METAR-TAF: